Time;durP1;ratioP1;P1;durP2;ratioP2;P2;SDS_P1;SDS_P2;PMS_P1;PMS_P2;Temp;Humidity;BMP_temperature;BMP_pressure;BME280_temperature;BME280_humidity;BME280_pressure;Samples;Min_cycle;Max_cycle;Signal;HPM_P1;HPM_P2
2022/04/25 00:01:11;;;;;;;0.20;0.20;;;;;;;13.59;89.65;99853.63;6224174;23;20123;-75
2022/04/25 00:03:37;;;;;;;0.20;0.20;;;;;;;13.57;89.79;99851.19;6224339;23;20070;-76
2022/04/25 00:06:04;;;;;;;0.20;0.20;;;;;;;13.56;89.61;99838.41;6224110;23;20008;-76
2022/04/25 00:08:29;;;;;;;0.20;0.20;;;;;;;13.70;89.08;99843.28;6224949;23;20011;-75
2022/04/25 00:10:55;;;;;;;0.20;0.20;;;;;;;13.64;89.06;99839.28;6224144;23;20000;-75
2022/04/25 00:13:26;;;;;;;0.20;0.20;;;;;;;13.62;89.80;99836.84;6224357;23;20004;-74
2022/04/25 00:15:52;;;;;;;0.20;0.20;;;;;;;13.71;89.61;99844.09;6225615;23;20015;-76
2022/04/25 00:18:21;;;;;;;0.20;0.20;;;;;;;13.76;90.17;99843.72;6225023;23;20004;-75
2022/04/25 00:20:47;;;;;;;0.20;0.20;;;;;;;13.79;90.66;99837.31;6225624;23;20091;-75
2022/04/25 00:23:13;;;;;;;0.20;0.20;;;;;;;13.87;91.19;99839.78;6227559;23;20015;-76
2022/04/25 00:25:41;;;;;;;0.20;0.20;;;;;;;13.83;91.33;99846.53;6233038;23;20004;-76
2022/04/25 00:28:10;;;;;;;0.20;0.20;;;;;;;13.68;93.29;99836.47;6232172;23;20019;-78
2022/04/25 00:30:35;;;;;;;0.20;0.20;;;;;;;13.67;93.07;99837.69;6235820;23;20009;-76
2022/04/25 00:33:02;;;;;;;0.20;0.20;;;;;;;13.63;93.89;99840.44;6230780;23;20012;-76
2022/04/25 00:35:28;;;;;;;0.20;0.20;;;;;;;13.69;94.14;99833.31;6226480;23;20008;-76
2022/04/25 00:37:54;;;;;;;0.20;0.20;;;;;;;13.56;93.61;99840.41;6200186;23;20012;-77
2022/04/25 00:40:23;;;;;;;0.20;0.20;;;;;;;13.57;92.28;99828.03;6224901;23;20007;-78
2022/04/25 00:42:49;;;;;;;0.20;0.20;;;;;;;13.49;91.66;99826.41;6226075;23;20442;-76
2022/04/25 00:45:16;;;;;;;0.20;0.20;;;;;;;13.46;91.31;99830.78;6201409;23;20012;-76
2022/04/25 00:47:43;;;;;;;0.20;0.20;;;;;;;13.41;90.36;99831.16;6227117;23;20019;-78
2022/04/25 00:50:10;;;;;;;0.20;0.20;;;;;;;13.33;89.85;99823.94;6225842;23;20325;-75
2022/04/25 00:52:36;;;;;;;0.20;0.20;;;;;;;13.17;88.20;99826.19;6224209;23;20306;-74
2022/04/25 00:55:06;;;;;;;0.20;0.20;;;;;;;13.16;86.52;99830.97;6225516;23;20023;-76
2022/04/25 00:57:32;;;;;;;0.20;0.20;;;;;;;13.16;85.42;99825.41;6226375;23;20008;-77
2022/04/25 00:59:58;;;;;;;0.20;0.20;;;;;;;13.07;83.76;99839.69;6227761;23;20101;-77
2022/04/25 01:02:28;;;;;;;0.20;0.20;;;;;;;12.99;83.27;99826.06;6201532;23;20020;-76
2022/04/25 01:04:57;;;;;;;0.20;0.20;;;;;;;12.72;81.94;99828.22;6198787;23;20027;-75
2022/04/25 01:07:23;;;;;;;0.20;0.20;;;;;;;12.49;82.24;99829.25;6226525;23;20318;-74
2022/04/25 01:09:49;;;;;;;0.20;0.20;;;;;;;12.48;82.57;99830.44;6229251;23;20042;-76
2022/04/25 01:12:15;;;;;;;0.20;0.20;;;;;;;12.36;83.01;99833.50;6225487;23;20417;-76
2022/04/25 01:14:40;;;;;;;0.20;0.20;;;;;;;12.47;82.85;99828.03;6223095;23;20015;-78
2022/04/25 01:17:07;;;;;;;0.20;0.20;;;;;;;12.47;82.84;99828.84;6221788;23;20001;-76
2022/04/25 01:19:33;;;;;;;0.20;0.20;;;;;;;12.44;82.48;99823.22;6221994;23;20004;-77
2022/04/25 01:21:59;;;;;;;0.20;0.20;;;;;;;12.38;82.78;99819.97;6221430;23;20011;-79
2022/04/25 01:27:19;;;;;;;0.20;0.20;;;;;;;12.36;82.98;99811.19;6248508;23;20027;-77
2022/04/25 01:29:46;;;;;;;0.20;0.20;;;;;;;12.39;82.89;99806.81;6216291;23;20044;-76
2022/04/25 01:32:12;;;;;;;0.20;0.20;;;;;;;12.38;83.30;99814.38;6216705;23;20417;-78
2022/04/25 01:34:38;;;;;;;0.20;0.20;;;;;;;12.42;82.99;99818.03;6216510;23;20043;-76
2022/04/25 01:37:21;;;;;;;0.20;0.20;;;;;;;12.41;83.13;99807.22;6216153;23;20019;-79
2022/04/25 01:39:49;;;;;;;0.20;0.20;;;;;;;12.38;83.30;99817.19;6215664;23;20012;-76
2022/04/25 01:42:15;;;;;;;0.20;0.20;;;;;;;12.50;84.05;99821.66;6215961;23;20437;-76
2022/04/25 01:44:42;;;;;;;0.20;0.20;;;;;;;12.65;84.31;99817.03;6216867;23;20042;-77
2022/04/25 01:47:09;;;;;;;0.20;0.20;;;;;;;12.69;85.00;99815.88;6218292;23;20011;-75
2022/04/25 01:49:35;;;;;;;0.20;0.20;;;;;;;12.74;85.60;99815.50;6218618;23;20011;-78
2022/04/25 01:52:28;;;;;;;0.20;0.20;;;;;;;12.75;85.97;99810.72;6222404;23;20443;-79
2022/04/25 01:54:54;;;;;;;0.20;0.20;;;;;;;12.77;86.73;99809.13;6225533;23;20027;-78
2022/04/25 01:57:20;;;;;;;0.20;0.20;;;;;;;12.60;87.24;99770.72;6223792;23;20485;-76
2022/04/25 01:59:45;;;;;;;0.20;0.20;;;;;;;12.81;87.70;99801.59;6223354;23;20011;-76
2022/04/25 02:02:12;;;;;;;0.20;0.20;;;;;;;12.83;87.95;99804.00;6224289;23;20013;-77
2022/04/25 02:04:42;;;;;;;0.20;0.20;;;;;;;12.99;88.58;99804.50;6224383;23;20012;-75
2022/04/25 02:07:09;;;;;;;0.20;0.20;;;;;;;13.10;88.42;99799.81;6223728;23;20413;-76
2022/04/25 02:09:36;;;;;;;0.20;0.20;;;;;;;12.96;88.69;99788.53;6223546;23;20008;-79
2022/04/25 02:12:03;;;;;;;0.20;0.20;;;;;;;13.13;89.17;99805.81;6223659;23;20483;-77
2022/04/25 02:14:29;;;;;;;0.20;0.20;;;;;;;13.15;89.21;99801.44;6224112;23;20384;-75
2022/04/25 02:16:58;;;;;;;0.20;0.20;;;;;;;13.20;89.07;99803.84;6222857;23;20004;-77
2022/04/25 02:19:35;;;;;;;0.20;0.20;;;;;;;13.22;89.23;99800.72;6223637;23;20036;-77
2022/04/25 02:22:06;;;;;;;0.20;0.20;;;;;;;13.31;88.71;99803.94;6225370;23;20325;-76
2022/04/25 02:24:32;;;;;;;0.20;0.20;;;;;;;13.29;88.60;99798.75;6222921;23;20012;-75
2022/04/25 02:26:58;;;;;;;0.20;0.20;;;;;;;13.36;88.94;99800.78;6223446;23;20008;-76
2022/04/25 02:29:23;;;;;;;0.20;0.20;;;;;;;13.34;88.37;99798.38;6236885;23;20023;-77
2022/04/25 02:31:49;;;;;;;0.20;0.20;;;;;;;13.39;88.32;99788.84;6228879;23;20011;-75
2022/04/25 02:34:15;;;;;;;0.20;0.20;;;;;;;13.27;88.80;99800.34;6228310;23;20015;-75
2022/04/25 02:36:40;;;;;;;0.20;0.20;;;;;;;13.20;88.83;99803.06;6228039;23;20011;-76
2022/04/25 02:39:07;;;;;;;0.20;0.20;;;;;;;13.06;89.25;99799.00;6226063;23;20004;-76
2022/04/25 02:41:32;;;;;;;0.20;0.20;;;;;;;13.03;89.63;99790.59;6225013;23;20035;-77
2022/04/25 02:43:58;;;;;;;0.20;0.20;;;;;;;13.06;89.92;99810.16;6225878;23;20023;-77
2022/04/25 02:46:23;;;;;;;0.20;0.20;;;;;;;13.05;89.94;99802.19;6225138;23;20434;-77
2022/04/25 02:48:49;;;;;;;0.20;0.20;;;;;;;12.98;90.43;99788.94;6227198;23;20008;-75
2022/04/25 02:51:16;;;;;;;0.20;0.20;;;;;;;13.03;90.57;99788.59;6233563;23;20039;-76
2022/04/25 02:53:42;;;;;;;0.20;0.20;;;;;;;12.97;90.69;99778.97;6229852;23;20015;-75
2022/04/25 02:56:09;;;;;;;0.20;0.20;;;;;;;12.98;91.02;99785.34;6225364;23;20079;-74
2022/04/25 02:58:38;;;;;;;0.20;0.20;;;;;;;12.96;91.05;99787.75;6226329;23;20082;-77
2022/04/25 03:01:05;;;;;;;0.20;0.20;;;;;;;12.85;91.31;99784.88;6251260;23;20005;-75
2022/04/25 03:03:33;;;;;;;0.20;0.20;;;;;;;12.88;91.19;99774.91;6224979;23;20416;-75
2022/04/25 03:05:59;;;;;;;0.20;0.20;;;;;;;12.95;90.24;99789.75;6227986;23;20007;-74
2022/04/25 03:08:25;;;;;;;0.20;0.20;;;;;;;12.88;90.57;99786.88;6261918;23;20500;-75
2022/04/25 03:10:52;;;;;;;0.20;0.20;;;;;;;12.79;90.36;99778.06;6262687;23;20042;-77
2022/04/25 03:13:19;;;;;;;0.20;0.20;;;;;;;12.76;89.97;99768.47;6226033;23;20015;-74
2022/04/25 03:15:47;;;;;;;0.20;0.20;;;;;;;12.84;89.78;99781.28;6227522;23;20004;-77
2022/04/25 03:18:14;;;;;;;0.20;0.20;;;;;;;12.85;89.86;99782.09;6254684;23;20007;-75
2022/04/25 03:20:42;;;;;;;0.20;0.20;;;;;;;12.76;89.78;99781.63;6227685;23;20004;-75
2022/04/25 03:23:08;;;;;;;0.20;0.20;;;;;;;12.72;89.67;99780.78;6226906;23;20019;-76
2022/04/25 03:25:35;;;;;;;0.20;0.20;;;;;;;12.75;89.68;99788.41;6225605;23;20015;-76
2022/04/25 03:28:01;;;;;;;0.20;0.20;;;;;;;12.72;90.80;99789.16;6226561;23;20008;-77
2022/04/25 03:30:28;;;;;;;0.20;0.20;;;;;;;12.70;91.05;99789.56;6222371;23;20023;-75
2022/04/25 03:32:54;;;;;;;0.20;0.20;;;;;;;12.54;90.23;99767.50;6222412;23;20013;-77
2022/04/25 03:35:22;;;;;;;0.20;0.20;;;;;;;12.73;90.24;99790.75;6222368;23;20005;-75
2022/04/25 03:37:52;;;;;;;0.20;0.20;;;;;;;12.73;90.23;99793.53;6219572;23;20071;-75
2022/04/25 03:40:18;;;;;;;0.20;0.20;;;;;;;12.70;90.39;99797.94;6218030;23;20062;-75
2022/04/25 03:42:45;;;;;;;0.20;0.20;;;;;;;12.68;90.08;99793.94;6217364;23;20012;-75
2022/04/25 03:45:12;;;;;;;0.20;0.20;;;;;;;12.82;89.69;99811.56;6217015;23;20000;-75
2022/04/25 03:47:39;;;;;;;0.20;0.20;;;;;;;12.76;89.39;99807.53;6218030;23;20013;-75
2022/04/25 03:50:07;;;;;;;0.20;0.20;;;;;;;12.74;89.34;99803.53;6217043;23;20000;-75
2022/04/25 03:52:33;;;;;;;0.20;0.20;;;;;;;12.80;89.07;99804.78;6219128;23;20079;-74
2022/04/25 03:57:44;;;;;;;0.20;0.20;;;;;;;12.87;87.55;99807.63;6223327;23;20354;-77
2022/04/25 04:00:11;;;;;;;0.20;0.20;;;;;;;12.87;87.23;99802.03;6220054;23;20008;-74
2022/04/25 04:02:37;;;;;;;0.20;0.20;;;;;;;12.90;86.87;99809.66;6220553;23;20098;-77
2022/04/25 04:05:03;;;;;;;0.20;0.20;;;;;;;12.92;86.95;99810.06;6219192;23;20004;-76
2022/04/25 04:07:29;;;;;;;0.20;0.20;;;;;;;12.93;86.75;99800.47;6221262;23;20014;-74
2022/04/25 04:09:54;;;;;;;0.20;0.20;;;;;;;13.09;86.77;99800.19;6224835;23;20008;-75
2022/04/25 04:12:23;;;;;;;0.20;0.20;;;;;;;13.17;86.37;99807.44;6230575;23;20004;-75
2022/04/25 04:14:49;;;;;;;0.20;0.20;;;;;;;13.18;86.60;99816.63;6228573;23;20011;-75
2022/04/25 04:17:17;;;;;;;0.20;0.20;;;;;;;13.08;85.69;99821.75;6222985;23;20091;-77
2022/04/25 04:19:44;;;;;;;0.20;0.20;;;;;;;13.03;86.37;99824.91;6221849;23;20074;-75
2022/04/25 04:22:09;;;;;;;0.20;0.20;;;;;;;13.02;86.56;99828.88;6221310;23;20017;-75
2022/04/25 04:24:35;;;;;;;0.20;0.20;;;;;;;13.08;86.26;99807.78;6226072;23;20008;-76
2022/04/25 04:27:05;;;;;;;0.20;0.20;;;;;;;13.10;85.87;99815.75;6227426;23;20040;-76
2022/04/25 04:29:33;;;;;;;0.20;0.20;;;;;;;13.04;86.07;99818.13;6242609;23;20012;-77
2022/04/25 04:32:01;;;;;;;0.20;0.20;;;;;;;12.93;86.53;99811.66;6230157;23;20008;-75
2022/04/25 04:34:27;;;;;;;0.20;0.20;;;;;;;13.08;85.58;99821.75;6230281;23;20003;-76
2022/04/25 04:36:53;;;;;;;0.20;0.20;;;;;;;13.07;85.13;99813.75;6228651;23;20004;-76
2022/04/25 04:39:19;;;;;;;0.20;0.20;;;;;;;13.03;85.46;99833.28;6230216;23;20034;-75
2022/04/25 04:41:45;;;;;;;0.20;0.20;;;;;;;12.98;86.06;99830.84;6230660;23;20016;-75
2022/04/25 04:44:11;;;;;;;0.20;0.20;;;;;;;12.92;86.91;99846.34;6229216;23;20004;-77
2022/04/25 04:46:37;;;;;;;0.20;0.20;;;;;;;12.84;86.57;99841.91;6222961;23;20008;-75
2022/04/25 04:49:03;;;;;;;0.20;0.20;;;;;;;12.32;85.26;99799.97;6226260;23;20008;-76
2022/04/25 04:51:29;;;;;;;0.20;0.20;;;;;;;12.75;84.04;99850.59;6231901;23;20004;-75
2022/04/25 04:53:54;;;;;;;0.20;0.20;;;;;;;12.48;83.20;99836.00;6231069;23;20069;-76
2022/04/25 04:56:20;;;;;;;0.20;0.20;;;;;;;13.30;83.52;99853.44;6230719;23;20416;-75
2022/04/25 04:58:45;;;;;;;0.20;0.20;;;;;;;14.04;79.72;99852.22;6231649;23;20019;-76
2022/04/25 05:01:11;;;;;;;0.20;0.20;;;;;;;14.75;76.35;99851.59;6223150;23;20012;-76
2022/04/25 05:03:41;;;;;;;0.20;0.20;;;;;;;15.60;73.47;99859.09;6219557;23;20011;-81
2022/04/25 05:06:07;;;;;;;0.20;0.20;;;;;;;16.27;68.68;99853.66;6219780;23;20031;-77
2022/04/25 05:08:33;;;;;;;0.20;0.20;;;;;;;16.93;65.44;99857.22;6219674;23;20015;-78
2022/04/25 05:10:58;;;;;;;0.20;0.20;;;;;;;17.58;62.83;99865.88;6219092;23;20007;-82
2022/04/25 05:13:24;;;;;;;0.20;0.20;;;;;;;18.27;61.12;99861.88;6220153;23;20012;-82
2022/04/25 05:15:49;;;;;;;0.20;0.20;;;;;;;18.47;56.20;99872.44;6219910;23;20483;-76
2022/04/25 05:18:15;;;;;;;0.20;0.20;;;;;;;17.51;59.27;99880.81;6219350;23;20324;-76
2022/04/25 05:20:41;;;;;;;0.20;0.20;;;;;;;17.35;58.72;99882.59;6220223;23;20004;-77
2022/04/25 05:23:10;;;;;;;0.20;0.20;;;;;;;17.56;57.48;99888.00;6219847;23;20429;-76
2022/04/25 05:25:38;;;;;;;0.20;0.20;;;;;;;18.00;56.68;99880.69;6220398;23;20004;-82
2022/04/25 05:28:05;;;;;;;0.20;0.20;;;;;;;18.97;54.41;99889.44;6248733;23;20004;-83
2022/04/25 05:30:32;;;;;;;0.20;0.20;;;;;;;19.26;52.28;99894.59;6247940;23;20008;-75
2022/04/25 05:33:02;;;;;;;0.20;0.20;;;;;;;19.12;51.64;99901.25;6248644;23;20467;-78
2022/04/25 05:35:33;;;;;;;0.20;0.20;;;;;;;19.73;49.20;99891.75;6221341;23;20420;-74
2022/04/25 05:37:59;;;;;;;0.20;0.20;;;;;;;18.84;53.79;99903.31;6221430;23;20054;-77
2022/04/25 05:40:25;;;;;;;0.20;0.20;;;;;;;18.75;52.24;99897.44;6221099;23;20019;-76
2022/04/25 05:42:53;;;;;;;0.20;0.20;;;;;;;17.92;54.25;99898.91;6222123;23;20039;-78
2022/04/25 05:45:21;;;;;;;0.20;0.20;;;;;;;17.98;54.82;99900.03;6221348;23;20100;-76
2022/04/25 05:47:47;;;;;;;0.20;0.20;;;;;;;17.99;55.69;99907.25;6221312;23;20061;-79
2022/04/25 05:52:59;;;;;;;0.20;0.20;;;;;;;18.67;53.97;99912.00;6248168;23;20016;-79
2022/04/25 05:55:26;;;;;;;0.20;0.20;;;;;;;18.47;53.80;99918.31;6221322;23;20000;-75
2022/04/25 05:57:51;;;;;;;0.20;0.20;;;;;;;18.43;55.38;99911.13;6221921;23;20035;-76
2022/04/25 06:00:18;;;;;;;0.20;0.20;;;;;;;19.15;53.41;99917.34;6222208;23;20298;-80
2022/04/25 06:02:44;;;;;;;0.20;0.20;;;;;;;18.75;54.60;99913.50;6221183;23;20012;-82
2022/04/25 06:05:11;;;;;;;0.20;0.20;;;;;;;18.80;54.65;99921.50;6221150;23;20001;-79
2022/04/25 06:07:45;;;;;;;0.20;0.20;;;;;;;19.55;54.16;99906.97;6221919;23;20008;-82
2022/04/25 06:10:16;;;;;;;0.20;0.20;;;;;;;19.22;54.75;99922.06;6216465;23;20091;-75
2022/04/25 06:12:50;;;;;;;0.20;0.20;;;;;;;18.80;55.82;99933.59;6248280;23;20012;-80
2022/04/25 06:15:17;;;;;;;0.20;0.20;;;;;;;19.45;53.38;99929.75;6247918;23;20005;-81
2022/04/25 06:17:43;;;;;;;0.20;0.20;;;;;;;19.37;54.43;99938.31;6221650;23;20372;-82
2022/04/25 06:20:12;;;;;;;0.20;0.20;;;;;;;19.54;54.07;99930.75;6221130;23;20004;-76
2022/04/25 06:22:51;;;;;;;0.20;0.20;;;;;;;19.77;51.31;99943.31;6221368;23;20429;-84
2022/04/25 06:25:19;;;;;;;0.20;0.20;;;;;;;19.31;54.98;99942.84;6221344;23;20012;-81
2022/04/25 06:27:48;;;;;;;0.20;0.20;;;;;;;20.05;53.33;99939.94;6220973;23;20100;-77
2022/04/25 06:30:16;;;;;;;0.20;0.20;;;;;;;19.42;54.36;99950.34;6215283;23;20012;-82
2022/04/25 06:32:47;;;;;;;0.20;0.20;;;;;;;20.55;52.81;99943.78;6216348;23;20012;-83
2022/04/25 06:35:16;;;;;;;0.20;0.20;;;;;;;19.77;52.81;99952.56;6216100;23;20015;-77
2022/04/25 06:37:44;;;;;;;0.20;0.20;;;;;;;19.05;54.81;99949.31;6215783;23;20028;-80
2022/04/25 06:40:13;;;;;;;0.20;0.20;;;;;;;19.08;55.87;99956.94;6215796;23;20040;-80
2022/04/25 06:42:41;;;;;;;0.20;0.20;;;;;;;19.22;54.93;99951.03;6217669;23;20087;-74
2022/04/25 06:45:08;;;;;;;0.20;0.20;;;;;;;18.92;55.52;99954.75;6215727;23;20084;-74
2022/04/25 06:47:34;;;;;;;0.20;0.20;;;;;;;18.21;57.53;99956.44;6215704;23;20004;-81
2022/04/25 06:50:06;;;;;;;0.20;0.20;;;;;;;18.08;57.99;99954.63;6216360;23;20011;-75
2022/04/25 06:52:33;;;;;;;0.20;0.20;;;;;;;19.16;55.72;99952.75;6216110;23;20426;-77
2022/04/25 06:55:04;;;;;;;0.20;0.20;;;;;;;19.48;53.94;99954.25;6215749;23;20440;-78
2022/04/25 06:57:32;;;;;;;0.20;0.20;;;;;;;20.26;50.48;99966.97;6217576;23;20008;-80
2022/04/25 07:00:04;;;;;;;0.20;0.20;;;;;;;19.93;52.79;99953.91;6215477;23;20008;-77
2022/04/25 07:02:29;;;;;;;0.20;0.20;;;;;;;20.45;50.00;99958.91;6217069;23;20005;-80
2022/04/25 07:04:55;;;;;;;0.20;0.20;;;;;;;20.60;49.59;99957.41;6215760;23;20387;-75
2022/04/25 07:07:21;;;;;;;0.20;0.20;;;;;;;20.96;46.98;99963.06;6216195;23;20005;-77
2022/04/25 07:09:50;;;;;;;0.20;0.20;;;;;;;19.70;51.53;99963.97;6215362;23;20338;-74
2022/04/25 07:12:16;;;;;;;0.20;0.20;;;;;;;18.59;54.32;99964.84;6216154;23;20032;-80
2022/04/25 07:14:44;;;;;;;0.20;0.20;;;;;;;18.40;56.08;99968.31;6215274;23;20070;-73
2022/04/25 07:17:10;;;;;;;0.20;0.20;;;;;;;17.65;58.61;99964.28;6215965;23;20460;-77
2022/04/25 07:19:39;;;;;;;0.20;0.20;;;;;;;17.48;59.36;99965.22;6215598;23;20008;-79
2022/04/25 07:30:24;;;;;;;0.20;0.20;;;;;;;17.42;59.73;99955.66;6242500;23;20039;-78
2022/04/25 07:32:49;;;;;;;0.20;0.20;;;;;;;17.31;59.52;99952.94;6220874;23;20011;-78
2022/04/25 07:35:15;;;;;;;0.20;0.20;;;;;;;17.20;60.48;99961.41;6222971;23;20031;-82
2022/04/25 07:37:44;;;;;;;0.20;0.20;;;;;;;17.25;60.09;99960.97;6220504;23;20032;-77
2022/04/25 07:40:12;;;;;;;0.20;0.20;;;;;;;17.01;61.21;99965.59;6220000;23;20034;-78
2022/04/25 07:42:44;;;;;;;0.20;0.20;;;;;;;17.57;58.82;99959.91;6220297;23;20008;-77
2022/04/25 07:45:11;;;;;;;0.20;0.20;;;;;;;17.37;59.53;99958.91;6220557;23;20004;-78
2022/04/25 07:47:39;;;;;;;0.20;0.20;;;;;;;17.23;59.77;99960.59;6220001;23;20420;-78
2022/04/25 07:50:08;;;;;;;0.20;0.20;;;;;;;17.24;59.38;99965.00;6219889;23;20008;-80
2022/04/25 07:52:33;;;;;;;0.20;0.20;;;;;;;16.74;60.31;99945.69;6219684;23;20447;-85
2022/04/25 07:54:59;;;;;;;0.20;0.20;;;;;;;16.80;60.79;99964.94;6220554;23;20087;-75
2022/04/25 07:57:25;;;;;;;0.20;0.20;;;;;;;16.59;61.36;99969.41;6220101;23;20008;-79
2022/04/25 07:59:50;;;;;;;0.20;0.20;;;;;;;16.66;61.78;99977.78;6246907;23;20001;-77
2022/04/25 08:02:19;;;;;;;0.20;0.20;;;;;;;16.52;61.85;99977.09;6220920;23;20008;-81
2022/04/25 08:04:48;;;;;;;0.20;0.20;;;;;;;16.37;62.31;99977.13;6220167;23;20066;-77
2022/04/25 08:07:14;;;;;;;0.20;0.20;;;;;;;16.27;62.35;99977.97;6221056;23;20012;-80
2022/04/25 08:09:44;;;;;;;0.20;0.20;;;;;;;16.25;62.49;99986.03;6219919;23;20082;-78
2022/04/25 08:17:59;;;;;;;0.20;0.20;;;;;;;16.65;62.02;99986.63;6246707;23;20079;-77
2022/04/25 08:20:28;;;;;;;;;;;;;;;16.62;61.91;99987.44;6247133;23;20032;-76
2022/04/25 08:23:01;;;;;;;0.20;0.20;;;;;;;16.68;62.03;99991.44;6219759;23;20272;-83
2022/04/25 08:25:32;;;;;;;0.20;0.20;;;;;;;16.65;62.11;99981.81;6246278;23;20000;-82
2022/04/25 08:28:01;;;;;;;0.20;0.20;;;;;;;16.99;61.46;99986.88;6220460;23;20009;-82
2022/04/25 08:30:33;;;;;;;0.20;0.20;;;;;;;17.27;60.70;99986.69;6219053;23;20019;-80
2022/04/25 08:33:01;;;;;;;0.20;0.20;;;;;;;17.19;60.80;99985.13;6246397;23;20054;-79
2022/04/25 08:35:28;;;;;;;0.20;0.20;;;;;;;17.23;61.05;99994.34;6246944;23;20000;-79
2022/04/25 08:37:56;;;;;;;0.20;0.20;;;;;;;17.27;60.65;99994.31;6221721;23;20036;-81
2022/04/25 08:40:28;;;;;;;0.20;0.20;;;;;;;17.39;60.66;99993.03;6220008;23;20377;-82
2022/04/25 08:42:58;;;;;;;0.20;0.20;;;;;;;17.48;60.48;99999.78;6220012;23;20087;-77
2022/04/25 08:45:30;;;;;;;0.20;0.20;;;;;;;17.42;60.10;100000.66;6219690;23;20074;-79
2022/04/25 08:48:00;;;;;;;0.20;0.20;;;;;;;17.36;60.51;100002.28;6220254;23;20095;-75
2022/04/25 08:50:30;;;;;;;0.20;0.20;;;;;;;17.37;60.30;100003.91;6219681;23;20417;-84
2022/04/25 08:52:59;;;;;;;0.20;0.20;;;;;;;17.25;60.12;100003.16;6219538;23;20382;-81
2022/04/25 08:55:28;;;;;;;0.20;0.20;;;;;;;17.47;60.04;100015.06;6219572;23;20047;-78
2022/04/25 08:57:56;;;;;;;0.20;0.20;;;;;;;17.57;59.36;100013.34;6219989;23;20012;-82
2022/04/25 09:00:21;;;;;;;0.20;0.20;;;;;;;17.37;59.11;100006.72;6219536;23;20004;-77
2022/04/25 09:02:50;;;;;;;0.20;0.20;;;;;;;17.51;58.49;100015.81;6220212;23;20329;-79
2022/04/25 09:05:16;;;;;;;0.10;0.10;;;;;;;17.57;58.26;100013.34;6219540;23;20011;-79
2022/04/25 09:07:42;;;;;;;0.20;0.20;;;;;;;17.62;57.57;100024.16;6220295;23;20012;-80
2022/04/25 09:10:12;;;;;;;0.20;0.20;;;;;;;17.52;56.61;100023.06;6219560;23;20443;-83
2022/04/25 09:12:38;;;;;;;0.20;0.20;;;;;;;17.73;55.65;100033.34;6219701;23;20016;-77
2022/04/25 09:15:06;;;;;;;0.20;0.20;;;;;;;17.70;53.57;100020.09;6219663;23;20012;-79
2022/04/25 09:17:32;;;;;;;0.20;0.20;;;;;;;17.89;53.78;100040.44;6195666;23;20016;-83
2022/04/25 09:19:58;;;;;;;0.20;0.20;;;;;;;18.01;54.73;100037.94;6220149;23;20078;-76
2022/04/25 09:22:39;;;;;;;0.20;0.20;;;;;;;18.02;55.15;100044.34;6220619;23;20012;-82
2022/04/25 09:25:16;;;;;;;0.20;0.20;;;;;;;18.05;54.76;100043.50;6215617;23;20070;-79
2022/04/25 09:27:42;;;;;;;0.20;0.20;;;;;;;18.04;54.67;100048.34;6221837;23;20008;-78
2022/04/25 09:30:23;;;;;;;0.20;0.20;;;;;;;18.03;54.64;100040.31;6247932;23;20016;-80
2022/04/25 09:32:52;;;;;;;0.20;0.20;;;;;;;18.04;54.79;100039.09;6248012;23;20008;-84
2022/04/25 09:35:34;;;;;;;0.20;0.20;;;;;;;18.14;54.14;100046.63;6222336;23;20015;-79
2022/04/25 09:38:08;;;;;;;0.20;0.20;;;;;;;18.09;54.41;100047.09;6247306;23;20396;-78
2022/04/25 09:40:38;;;;;;;0.20;0.20;;;;;;;18.17;54.06;100051.44;6242592;23;20016;-76
2022/04/25 09:43:08;;;;;;;0.10;0.10;;;;;;;18.30;54.78;100044.06;6246327;23;20000;-80
2022/04/25 09:45:37;;;;;;;0.20;0.20;;;;;;;18.67;53.65;100038.81;6219706;23;20327;-83
2022/04/25 09:48:09;;;;;;;0.20;0.20;;;;;;;18.97;53.55;100052.16;6220371;23;20290;-81
2022/04/25 09:50:34;;;;;;;0.20;0.20;;;;;;;18.59;54.81;100044.53;6219882;23;20448;-76
2022/04/25 09:53:02;;;;;;;0.20;0.20;;;;;;;19.06;53.18;100049.59;6220004;23;20008;-79
2022/04/25 09:55:34;;;;;;;0.20;0.20;;;;;;;18.47;54.83;100047.09;6246438;23;20000;-77
2022/04/25 09:58:17;;;;;;;0.20;0.20;;;;;;;18.63;54.64;100044.47;6219588;23;20008;-77
2022/04/25 10:00:43;;;;;;;0.20;0.20;;;;;;;18.68;54.48;100046.88;6219650;23;20329;-81
2022/04/25 10:03:12;;;;;;;0.20;0.20;;;;;;;19.02;52.91;100046.03;6246208;23;20012;-80
2022/04/25 10:05:46;;;;;;;0.20;0.20;;;;;;;19.25;51.45;100050.94;6246570;23;20004;-78
2022/04/25 10:08:15;;;;;;;0.20;0.20;;;;;;;19.38;50.82;100055.56;6219848;23;20425;-80
2022/04/25 10:10:47;;;;;;;0.20;0.20;;;;;;;19.16;50.33;100036.56;6221991;23;20083;-85
2022/04/25 10:13:12;;;;;;;0.20;0.20;;;;;;;19.26;49.73;100039.22;6223884;23;20014;-79
2022/04/25 10:15:39;;;;;;;0.20;0.20;;;;;;;18.93;49.97;100051.41;6222089;23;20036;-77
2022/04/25 10:18:12;;;;;;;0.10;0.10;;;;;;;19.31;48.66;100047.22;6221570;23;20411;-84
2022/04/25 10:20:40;;;;;;;0.20;0.20;;;;;;;18.74;50.83;100045.16;6221136;23;20435;-80
2022/04/25 10:23:09;;;;;;;0.20;0.20;;;;;;;19.32;50.11;100050.84;6221484;23;20004;-79
2022/04/25 10:25:36;;;;;;;0.20;0.20;;;;;;;19.53;49.17;100049.72;6221040;23;20091;-76
2022/04/25 10:28:06;;;;;;;0.20;0.20;;;;;;;20.65;46.49;100044.50;6221111;23;20011;-81
2022/04/25 10:30:36;;;;;;;0.20;0.20;;;;;;;21.26;45.53;100021.38;6220365;23;20084;-79
2022/04/25 10:33:22;;;;;;;0.20;0.20;;;;;;;21.30;45.17;100047.56;6221685;23;20004;-85
2022/04/25 10:35:51;;;;;;;0.20;0.20;;;;;;;21.34;45.15;100039.78;6221140;23;20008;-81
2022/04/25 10:38:49;;;;;;;0.20;0.20;;;;;;;20.83;45.97;100053.44;6220872;23;20007;-77
2022/04/25 10:44:16;;;;;;;0.20;0.20;;;;;;;21.29;45.25;100053.63;6247727;23;20062;-85
2022/04/25 10:47:06;;;;;;;0.20;0.20;;;;;;;21.17;44.52;100058.75;6221591;23;20032;-78
2022/04/25 10:49:46;;;;;;;0.20;0.20;;;;;;;20.66;44.43;100035.59;6221776;23;20010;-74
2022/04/25 10:52:34;;;;;;;0.20;0.20;;;;;;;20.51;44.84;100068.22;6221049;23;20008;-78
2022/04/25 10:55:19;;;;;;;0.20;0.20;;;;;;;19.94;47.17;100062.78;6220797;23;20015;-83
2022/04/25 10:58:03;;;;;;;0.20;0.20;;;;;;;19.66;47.78;100045.09;6220678;23;20083;-77
2022/04/25 11:03:08;;;;;;;0.20;0.20;;;;;;;19.60;49.52;100073.03;6248655;23;20018;-84
2022/04/25 11:05:39;;;;;;;0.20;0.20;;;;;;;19.41;49.85;100070.06;6221109;23;20087;-83
2022/04/25 11:08:20;;;;;;;0.20;0.20;;;;;;;19.40;49.81;100054.38;6221405;23;20012;-81
2022/04/25 11:10:46;;;;;;;0.20;0.20;;;;;;;19.23;50.71;100064.66;6221695;23;20310;-79
2022/04/25 11:13:12;;;;;;;0.20;0.20;;;;;;;19.25;50.40;100074.31;6220911;23;20004;-85
2022/04/25 11:15:49;;;;;;;0.20;0.20;;;;;;;19.36;51.07;100082.63;6221600;23;20325;-78
2022/04/25 11:18:33;;;;;;;0.20;0.20;;;;;;;19.36;51.21;100085.44;6221192;23;20008;-79
2022/04/25 11:21:04;;;;;;;0.20;0.20;;;;;;;18.97;51.73;100088.81;6221891;23;20012;-82
2022/04/25 11:23:31;;;;;;;0.20;0.20;;;;;;;18.83;53.12;100087.75;6220403;23;20465;-83
2022/04/25 11:26:01;;;;;;;0.20;0.20;;;;;;;18.79;52.74;100092.63;6247578;23;20031;-85
2022/04/25 11:28:28;;;;;;;0.20;0.20;;;;;;;18.58;52.90;100084.38;6224226;23;20004;-78
2022/04/25 11:31:15;;;;;;;0.20;0.20;;;;;;;18.68;52.89;100091.97;6226470;23;20091;-80
2022/04/25 11:33:48;;;;;;;0.20;0.20;;;;;;;19.08;52.22;100089.47;6221303;23;20066;-85
2022/04/25 11:36:14;;;;;;;0.20;0.20;;;;;;;19.80;50.12;100092.84;6220904;23;20004;-84
2022/04/25 11:41:30;;;;;;;0.20;0.20;;;;;;;20.27;48.13;100106.97;6247710;23;20023;-81
2022/04/25 11:43:58;;;;;;;0.20;0.20;;;;;;;20.24;48.51;100099.38;6247311;23;20039;-83
2022/04/25 11:46:25;;;;;;;0.20;0.20;;;;;;;20.37;47.61;100091.84;6247231;23;20008;-81
2022/04/25 11:48:53;;;;;;;0.20;0.20;;;;;;;20.19;47.82;100099.88;6220407;23;20004;-82
2022/04/25 11:51:31;;;;;;;0.20;0.20;;;;;;;19.93;48.20;100095.06;6220348;23;20008;-86
2022/04/25 11:53:59;;;;;;;0.20;0.20;;;;;;;19.83;49.01;100105.31;6220771;23;20328;-81
2022/04/25 11:56:26;;;;;;;0.20;0.20;;;;;;;19.58;49.74;100094.38;6246970;23;20425;-83
2022/04/25 11:58:53;;;;;;;0.20;0.20;;;;;;;19.42;50.06;100071.66;6221144;23;20011;-79
2022/04/25 12:01:46;;;;;;;0.20;0.20;;;;;;;19.83;49.31;100105.31;6247431;23;20013;-78
2022/04/25 12:04:35;;;;;;;0.20;0.20;;;;;;;19.59;48.22;100099.63;6247215;23;20004;-85
2022/04/25 12:07:06;;;;;;;0.20;0.20;;;;;;;19.59;49.20;100096.00;6220341;23;20011;-87
2022/04/25 12:17:52;;;;;;;0.20;0.20;;;;;;;20.79;47.27;100106.44;6246718;23;20015;-83